Time;durP1;ratioP1;P1;durP2;ratioP2;P2;SDS_P1;SDS_P2;PMS_P1;PMS_P2;Temp;Humidity;BMP_temperature;BMP_pressure;BME280_temperature;BME280_humidity;BME280_pressure;Samples;Min_cycle;Max_cycle;Signal;HPM_P1;HPM_P2
2022/03/20 00:02:55;;;;;;;56.90;26.90;;;;;;;-3.12;53.73;101535.34;2096387;84;21038;-82
2022/03/20 00:05:55;;;;;;;60.80;26.87;;;;;;;-3.16;54.10;101531.55;2093754;85;21029;-82
2022/03/20 00:08:56;;;;;;;58.73;26.80;;;;;;;-3.18;54.43;101534.30;2094688;84;20959;-82
2022/03/20 00:11:57;;;;;;;63.30;27.30;;;;;;;-3.21;54.64;101532.33;2094849;85;20967;-82
2022/03/20 00:14:57;;;;;;;58.80;25.63;;;;;;;-3.23;54.82;101535.09;2093209;85;20979;-82
2022/03/20 00:17:58;;;;;;;57.63;26.03;;;;;;;-3.25;54.95;101532.73;2092661;84;21382;-82
2022/03/20 00:20:58;;;;;;;57.33;26.67;;;;;;;-3.26;55.05;101533.48;2093217;85;21382;-82
2022/03/20 00:24:00;;;;;;;68.67;27.47;;;;;;;-3.29;55.09;101531.87;2094562;85;20928;-82
2022/03/20 00:27:00;;;;;;;61.20;27.70;;;;;;;-3.30;54.87;101536.44;2093230;84;21027;-82
2022/03/20 00:30:01;;;;;;;62.50;27.43;;;;;;;-3.33;54.93;101537.38;2093850;85;20964;-82
2022/03/20 00:33:01;;;;;;;57.17;26.67;;;;;;;-3.34;55.09;101542.33;2091789;85;20948;-82
2022/03/20 00:36:02;;;;;;;71.23;30.47;;;;;;;-3.37;54.98;101536.52;2091418;85;21007;-82
2022/03/20 00:39:02;;;;;;;63.80;29.33;;;;;;;-3.38;54.90;101529.96;2093116;85;20991;-82
2022/03/20 00:42:03;;;;;;;63.07;28.40;;;;;;;-3.42;54.91;101532.92;2095042;84;21389;-82
2022/03/20 00:45:04;;;;;;;56.67;26.73;;;;;;;-3.41;54.79;101530.91;2094189;85;21003;-82
2022/03/20 00:48:07;;;;;;;58.20;26.23;;;;;;;-3.39;54.84;101536.72;2093269;84;21071;-82
2022/03/20 00:51:10;;;;;;;58.60;26.87;;;;;;;-3.39;54.89;101527.77;2091718;84;21075;-82
2022/03/20 00:54:10;;;;;;;60.17;28.30;;;;;;;-3.42;54.83;101534.20;2093926;84;21054;-82
2022/03/20 00:57:11;;;;;;;68.30;29.30;;;;;;;-3.44;54.69;101534.03;2091926;84;21015;-82
2022/03/20 01:00:12;;;;;;;58.90;27.30;;;;;;;-3.46;54.65;101532.05;2091678;85;21059;-82
2022/03/20 01:03:12;;;;;;;61.57;27.40;;;;;;;-3.47;54.83;101536.58;2101667;84;20998;-82
2022/03/20 01:06:13;;;;;;;55.20;25.33;;;;;;;-3.49;54.91;101532.59;2102429;84;21023;-82
2022/03/20 01:09:13;;;;;;;50.97;24.93;;;;;;;-3.53;55.00;101532.98;2114138;84;20955;-82
2022/03/20 01:12:14;;;;;;;58.97;26.50;;;;;;;-3.58;55.12;101536.69;2110563;84;20955;-82
2022/03/20 01:15:15;;;;;;;54.57;25.43;;;;;;;-3.65;55.19;101538.02;2115618;84;20990;-82
2022/03/20 01:18:16;;;;;;;69.17;26.90;;;;;;;-3.71;55.34;101538.26;2094949;84;21038;-82
2022/03/20 01:21:16;;;;;;;58.90;25.83;;;;;;;-3.73;55.39;101535.91;2110305;84;21370;-82
2022/03/20 01:24:17;;;;;;;64.77;25.70;;;;;;;-3.71;55.55;101531.87;2106516;84;21346;-82
2022/03/20 01:27:17;;;;;;;63.07;26.53;;;;;;;-3.73;55.62;101526.97;2110140;84;21326;-83
2022/03/20 01:30:18;;;;;;;59.00;24.97;;;;;;;-3.72;55.69;101532.98;2114621;84;20942;-84
2022/03/20 01:33:18;;;;;;;58.90;25.43;;;;;;;-3.76;55.70;101528.28;2110775;84;20954;-83
2022/03/20 01:36:19;;;;;;;55.33;25.20;;;;;;;-3.78;55.74;101519.17;2096745;84;21003;-82
2022/03/20 01:39:20;;;;;;;60.97;26.50;;;;;;;-3.82;55.71;101519.58;2113787;84;21002;-82
2022/03/20 01:42:20;;;;;;;52.63;24.57;;;;;;;-3.86;55.81;101523.44;2119243;84;20987;-82
2022/03/20 01:45:20;;;;;;;53.90;25.97;;;;;;;-3.93;55.89;101521.31;2120128;83;20923;-82
2022/03/20 01:48:21;;;;;;;49.87;23.93;;;;;;;-3.95;56.02;101521.51;2107331;84;20959;-83
2022/03/20 01:52:10;;;;;;;54.63;24.57;;;;;;;-4.00;56.20;101521.00;2118259;83;21338;-82
2022/03/20 01:54:24;;;;;;;58.70;25.33;;;;;;;-4.04;56.40;101520.12;2106047;84;21427;-84
2022/03/20 01:57:26;;;;;;;59.27;25.57;;;;;;;-4.08;56.69;101515.41;2120887;84;20994;-82
2022/03/20 02:00:26;;;;;;;51.47;24.87;;;;;;;-4.04;56.79;101523.04;2113988;84;21346;-82
2022/03/20 02:03:27;;;;;;;59.00;26.20;;;;;;;-4.05;56.89;101523.41;2104327;84;20987;-83
2022/03/20 02:06:27;;;;;;;53.07;24.27;;;;;;;-4.06;56.87;101522.86;2111387;83;20999;-82
2022/03/20 02:09:28;;;;;;;52.37;23.37;;;;;;;-4.08;57.03;101524.34;2116622;84;20972;-82
2022/03/20 02:12:29;;;;;;;48.83;22.70;;;;;;;-4.09;57.15;101517.79;2115074;83;20979;-82
2022/03/20 02:15:29;;;;;;;53.20;25.00;;;;;;;-4.11;57.27;101518.89;2119763;84;20963;-82
2022/03/20 02:18:31;;;;;;;55.40;25.20;;;;;;;-4.13;57.29;101520.73;2123990;83;21386;-82
2022/03/20 02:21:32;;;;;;;53.53;23.77;;;;;;;-4.17;57.58;101519.48;2124854;84;20971;-83
2022/03/20 02:24:32;;;;;;;58.57;24.40;;;;;;;-4.22;57.66;101518.06;2118714;84;20994;-83
2022/03/20 02:27:34;;;;;;;56.53;24.43;;;;;;;-4.26;57.65;101514.63;2119048;84;21468;-82
2022/03/20 02:30:35;;;;;;;56.73;23.73;;;;;;;-4.32;57.80;101516.50;2118746;84;20991;-83
2022/03/20 02:33:36;;;;;;;47.23;22.83;;;;;;;-4.33;57.93;101510.86;2117282;84;21014;-83
2022/03/20 02:36:36;;;;;;;49.37;22.93;;;;;;;-4.36;57.89;101511.75;2124027;83;21350;-82
2022/03/20 02:39:37;;;;;;;47.63;22.40;;;;;;;-4.38;57.86;101510.67;2114357;84;20991;-82
2022/03/20 02:42:41;;;;;;;48.83;22.30;;;;;;;-4.41;57.81;101508.69;2122504;84;20994;-82
2022/03/20 02:45:43;;;;;;;42.07;20.97;;;;;;;-4.49;57.65;101504.00;2118623;84;21039;-81
2022/03/20 02:48:45;;;;;;;47.57;23.43;;;;;;;-4.53;57.86;101504.38;2118980;84;20991;-82
2022/03/20 02:51:45;;;;;;;51.13;23.47;;;;;;;-4.53;58.03;101499.66;2118875;84;21026;-82
2022/03/20 02:54:46;;;;;;;50.57;23.03;;;;;;;-4.53;58.21;101495.83;2118180;84;21445;-84
2022/03/20 02:57:47;;;;;;;50.33;22.27;;;;;;;-4.54;58.11;101501.30;2111588;84;20992;-84
2022/03/20 03:00:47;;;;;;;43.53;20.37;;;;;;;-4.55;57.99;101493.11;2110854;83;21029;-83
2022/03/20 03:03:48;;;;;;;49.57;22.20;;;;;;;-4.55;58.17;101493.48;2117129;84;20991;-84
2022/03/20 03:06:48;;;;;;;49.43;22.43;;;;;;;-4.54;58.03;101496.56;2117796;84;21042;-83
2022/03/20 03:13:08;;;;;;;49.80;22.13;;;;;;;-4.57;57.80;101493.30;2125732;84;21050;-83
2022/03/20 03:16:09;;;;;;;47.30;20.80;;;;;;;-4.55;57.97;101489.66;2122393;84;20916;-83
2022/03/20 03:19:12;;;;;;;51.70;22.67;;;;;;;-4.54;58.07;101491.47;2118535;84;20982;-83
2022/03/20 03:22:11;;;;;;;44.63;21.13;;;;;;;-4.56;58.26;101492.56;2118357;84;21087;-84
2022/03/20 03:25:12;;;;;;;39.80;20.10;;;;;;;-4.60;58.57;101492.05;2117927;84;20927;-84
2022/03/20 03:28:13;;;;;;;47.53;21.40;;;;;;;-4.59;58.40;101493.86;2117450;84;21049;-83
2022/03/20 03:31:13;;;;;;;43.93;20.57;;;;;;;-4.55;58.66;101495.66;2111018;84;20982;-84
2022/03/20 03:37:33;;;;;;;46.60;21.00;;;;;;;-4.42;58.27;101492.84;2116166;84;21086;-84
2022/03/20 03:40:33;;;;;;;43.23;19.53;;;;;;;-4.36;57.85;101496.08;2118144;84;21453;-83
2022/03/20 03:43:36;;;;;;;44.00;21.10;;;;;;;-4.39;57.85;101491.91;2110308;84;20954;-83
2022/03/20 03:46:37;;;;;;;51.40;23.20;;;;;;;-4.41;58.03;101498.85;2117780;84;21079;-82
2022/03/20 03:49:38;;;;;;;47.17;21.50;;;;;;;-4.46;58.04;101493.61;2120385;83;21410;-84
2022/03/20 03:52:38;;;;;;;57.53;22.57;;;;;;;-4.55;58.11;101498.58;2125973;84;20995;-85
2022/03/20 03:55:39;;;;;;;51.63;23.67;;;;;;;-4.56;57.95;101505.31;2112713;84;20919;-85
2022/03/20 03:58:39;;;;;;;48.87;22.40;;;;;;;-4.50;58.24;101499.63;2117922;84;21333;-85
2022/03/20 04:01:40;;;;;;;51.60;23.83;;;;;;;-4.51;58.02;101502.92;2109193;84;21402;-85
2022/03/20 04:04:41;;;;;;;48.73;22.00;;;;;;;-4.39;57.91;101509.77;2092932;84;20974;-85
2022/03/20 04:07:42;;;;;;;45.27;22.03;;;;;;;-4.27;57.79;101517.92;2091445;85;21127;-85
2022/03/20 04:10:42;;;;;;;44.37;21.00;;;;;;;-4.26;57.53;101514.27;2095760;84;21382;-85
2022/03/20 04:13:43;;;;;;;52.10;24.03;;;;;;;-4.35;57.57;101514.47;2094706;84;21303;-85
2022/03/20 04:16:43;;;;;;;45.17;21.40;;;;;;;-4.40;57.98;101508.31;2095268;84;20951;-84
2022/03/20 04:19:44;;;;;;;46.13;21.33;;;;;;;-4.46;58.10;101513.63;2094466;85;20991;-86
2022/03/20 04:23:42;;;;;;;51.93;22.73;;;;;;;-4.50;58.22;101514.92;2092993;84;20928;-84
2022/03/20 04:25:46;;;;;;;52.53;24.27;;;;;;;-4.49;57.76;101518.02;2089536;85;21090;-82
2022/03/20 04:28:47;;;;;;;51.23;23.47;;;;;;;-4.44;57.52;101517.63;2091783;85;21023;-83
2022/03/20 04:31:47;;;;;;;46.20;21.87;;;;;;;-4.39;57.60;101515.23;2092864;85;21054;-83
2022/03/20 04:34:48;;;;;;;44.70;21.73;;;;;;;-4.35;57.73;101517.39;2094457;84;21041;-82
2022/03/20 04:37:48;;;;;;;50.00;21.50;;;;;;;-4.39;57.79;101515.23;2093838;84;21030;-82
2022/03/20 04:40:49;;;;;;;48.47;22.63;;;;;;;-4.44;57.69;101521.45;2094457;84;20995;-82
2022/03/20 04:43:52;;;;;;;51.87;22.93;;;;;;;-4.39;57.91;101526.34;2091172;84;21454;-82
2022/03/20 04:46:53;;;;;;;55.37;23.43;;;;;;;-4.30;57.81;101521.40;2091294;85;21087;-82
2022/03/20 04:59:53;;;;;;;48.70;23.20;;;;;;;-4.22;57.26;101525.34;2094447;85;21026;-85
2022/03/20 05:02:53;;;;;;;48.70;22.50;;;;;;;-4.24;57.43;101519.17;2104697;84;21071;-84
2022/03/20 05:05:54;;;;;;;51.47;23.33;;;;;;;-4.22;57.52;101512.97;2119786;84;20915;-82
2022/03/20 05:13:19;;;;;;;43.33;22.03;;;;;;;-4.09;57.29;101521.62;2110844;84;21042;-83
2022/03/20 05:15:17;;;;;;;55.43;24.90;;;;;;;-3.64;56.70;101516.86;2115553;84;21050;-84
2022/03/20 05:18:19;;;;;;;53.13;24.83;;;;;;;-3.39;56.26;101520.48;2118796;84;21039;-83
2022/03/20 05:21:20;;;;;;;52.43;25.27;;;;;;;-3.21;55.87;101522.48;2124176;84;21062;-82
2022/03/20 05:24:20;;;;;;;48.97;24.23;;;;;;;-2.95;55.51;101526.56;2122124;84;21009;-83
2022/03/20 05:27:21;;;;;;;50.70;24.33;;;;;;;-2.79;55.00;101527.45;2111028;83;20966;-84
2022/03/20 05:30:21;;;;;;;45.77;23.87;;;;;;;-2.65;54.80;101529.83;2096773;84;21029;-83
2022/03/20 05:33:22;;;;;;;45.30;22.83;;;;;;;-2.46;54.51;101533.09;2119658;84;20989;-83
2022/03/20 05:36:22;;;;;;;46.03;23.33;;;;;;;-2.26;54.19;101528.42;2112472;84;21334;-84
2022/03/20 05:39:23;;;;;;;49.83;23.73;;;;;;;-2.09;54.00;101535.29;2117885;83;20986;-84
2022/03/20 05:42:23;;;;;;;44.80;23.17;;;;;;;-1.94;53.61;101539.06;2115139;83;20998;-84
2022/03/20 05:45:24;;;;;;;51.90;25.03;;;;;;;-1.76;53.36;101546.46;2118986;84;21029;-83
2022/03/20 05:48:24;;;;;;;46.83;24.63;;;;;;;-1.55;53.32;101542.67;2119714;84;20998;-84
2022/03/20 05:51:25;;;;;;;45.83;22.67;;;;;;;-1.29;53.08;101541.47;2112363;84;20978;-85
2022/03/20 05:54:25;;;;;;;48.07;24.90;;;;;;;-1.08;53.25;101542.72;2112587;83;21350;-83
2022/03/20 06:00:45;;;;;;;47.07;23.47;;;;;;;-0.71;52.11;101539.26;2119019;84;21070;-84
2022/03/20 06:03:45;;;;;;;45.90;23.43;;;;;;;-0.45;52.86;101543.48;2111581;84;21029;-84
2022/03/20 06:06:48;;;;;;;49.20;24.80;;;;;;;-0.26;52.84;101541.05;2123344;84;21022;-85
2022/03/20 06:09:48;;;;;;;44.33;23.53;;;;;;;-0.01;50.89;101536.23;2125612;84;21433;-86
2022/03/20 06:12:49;;;;;;;44.00;22.90;;;;;;;0.29;49.75;101543.44;2126195;84;21006;-83
2022/03/20 06:15:51;;;;;;;65.27;29.03;;;;;;;0.60;49.47;101536.56;2126145;84;21006;-85
2022/03/20 06:18:53;;;;;;;72.83;30.40;;;;;;;3.05;64.93;101527.17;2111167;84;20955;-87
2022/03/20 06:21:57;;;;;;;43.83;24.20;;;;;;;7.64;56.10;101503.22;2125553;84;20983;-88
2022/03/20 06:24:57;;;;;;;51.33;23.67;;;;;;;10.09;40.98;101505.31;2125570;84;21006;-87
2022/03/20 06:31:00;;;;;;;33.03;18.70;;;;;;;11.69;32.82;101512.99;2105649;84;21457;-85
2022/03/20 06:34:01;;;;;;;124.30;48.53;;;;;;;12.13;29.77;101504.30;2118357;84;20924;-87
2022/03/20 06:37:01;;;;;;;37.13;18.03;;;;;;;12.29;29.00;101511.61;2125392;83;21046;-84
2022/03/20 06:40:04;;;;;;;27.00;16.27;;;;;;;12.58;27.06;101507.31;2116928;84;21051;-84
2022/03/20 06:43:07;;;;;;;25.87;14.90;;;;;;;12.62;27.66;101513.17;2125918;84;21417;-84
2022/03/20 06:46:08;;;;;;;32.70;16.13;;;;;;;12.50;26.34;101523.09;2125566;84;20994;-86
2022/03/20 06:49:10;;;;;;;54.43;23.63;;;;;;;12.41;26.04;101517.02;2119834;84;20971;-87
2022/03/20 06:52:11;;;;;;;24.40;15.47;;;;;;;12.06;25.41;101520.95;2110242;84;21034;-87
2022/03/20 06:55:16;;;;;;;21.70;15.43;;;;;;;11.92;26.53;101527.24;2124171;84;20927;-87
2022/03/20 06:58:17;;;;;;;25.00;15.47;;;;;;;12.48;25.25;101533.02;2125292;84;21111;-88
2022/03/20 07:01:18;;;;;;;665.53;323.47;;;;;;;12.79;24.57;101536.64;2124640;84;21045;-86
2022/03/20 07:04:20;;;;;;;313.47;127.13;;;;;;;12.82;23.44;101532.84;2118740;84;21387;-88
2022/03/20 07:07:21;;;;;;;77.47;37.60;;;;;;;12.49;25.03;101538.33;2119754;84;21130;-85
2022/03/20 07:10:22;;;;;;;193.23;88.10;;;;;;;12.76;23.74;101543.95;2119442;84;20919;-84
2022/03/20 07:16:42;;;;;;;18.57;13.67;;;;;;;11.20;24.35;101545.78;2118980;84;21029;-80
2022/03/20 07:19:46;;;;;;;24.27;14.43;;;;;;;9.75;25.75;101558.59;2119438;84;21066;-81
2022/03/20 07:22:48;;;;;;;24.87;14.27;;;;;;;8.58;26.85;101561.42;2119186;84;21054;-80
2022/03/20 07:32:25;;;;;;;23.93;14.60;;;;;;;7.08;29.07;101561.38;2119868;84;21437;-83
2022/03/20 07:35:27;;;;;;;20.77;13.53;;;;;;;6.90;29.07;101559.68;2120951;84;20994;-83
2022/03/20 07:38:27;;;;;;;24.63;13.73;;;;;;;6.74;29.20;101564.59;2118794;84;21464;-80
2022/03/20 07:41:28;;;;;;;22.47;14.27;;;;;;;6.46;29.25;101568.63;2120167;83;21010;-81
2022/03/20 07:44:31;;;;;;;21.20;14.27;;;;;;;6.36;29.50;101569.67;2120753;84;20967;-82
2022/03/20 07:47:32;;;;;;;22.50;15.43;;;;;;;6.43;29.85;101568.02;2121233;84;21046;-82
2022/03/20 07:50:32;;;;;;;19.27;14.03;;;;;;;6.50;30.18;101572.85;2120433;84;21322;-84
2022/03/20 07:53:33;;;;;;;23.63;14.70;;;;;;;6.57;30.22;101572.89;2120603;84;21314;-81
2022/03/20 07:56:37;;;;;;;23.77;15.13;;;;;;;6.67;30.29;101568.85;2119970;83;20987;-83
2022/03/20 07:59:37;;;;;;;34.95;23.27;;;;;;;6.92;30.28;101571.08;2120873;84;21361;-83
2022/03/20 08:02:38;;;;;;;27.00;15.03;;;;;;;6.99;30.39;101570.73;2120634;84;20974;-83
2022/03/20 08:05:38;;;;;;;19.93;12.63;;;;;;;7.11;30.24;101577.58;2110984;84;21322;-85
2022/03/20 08:08:43;;;;;;;20.97;13.80;;;;;;;7.19;29.83;101577.70;2125326;84;21085;-83
2022/03/20 08:11:43;;;;;;;19.82;13.38;;;;;;;7.20;29.71;101579.11;2125934;84;20947;-83
2022/03/20 08:14:44;;;;;;;19.63;13.80;;;;;;;7.27;29.42;101581.73;2118687;84;20962;-84
2022/03/20 08:17:45;;;;;;;21.47;13.00;;;;;;;7.34;29.23;101582.25;2118768;84;21039;-81
2022/03/20 08:20:45;;;;;;;19.83;13.27;;;;;;;7.34;29.23;101582.25;2126285;84;20971;-83
2022/03/20 08:23:46;;;;;;;16.73;12.50;;;;;;;7.47;29.24;101580.08;2111134;84;20986;-83
2022/03/20 08:26:46;;;;;;;18.20;12.10;;;;;;;7.70;29.21;101569.02;2119191;84;20983;-81
2022/03/20 08:29:47;;;;;;;37.77;12.57;;;;;;;7.84;28.27;101572.17;2118883;84;21002;-81
2022/03/20 08:32:47;;;;;;;22.13;11.17;;;;;;;7.75;27.63;101578.02;2119359;84;20963;-82
2022/03/20 08:35:48;;;;;;;20.30;12.90;;;;;;;7.70;27.98;101575.52;2118917;84;20959;-85
2022/03/20 08:38:49;;;;;;;18.37;11.67;;;;;;;7.81;28.26;101570.66;2126175;84;21035;-82
2022/03/20 08:41:49;;;;;;;19.57;11.93;;;;;;;7.94;28.16;101562.47;2105214;84;21082;-86
2022/03/20 08:44:52;;;;;;;17.70;12.00;;;;;;;8.18;28.22;101564.45;2118762;84;21011;-84
2022/03/20 08:47:52;;;;;;;23.97;12.03;;;;;;;8.35;27.84;101562.97;2119589;84;21015;-84
2022/03/20 08:50:53;;;;;;;16.00;10.97;;;;;;;8.39;27.56;101569.27;2119326;84;21003;-84
2022/03/20 08:53:54;;;;;;;16.70;12.07;;;;;;;8.40;27.68;101563.27;2112383;84;20940;-82
2022/03/20 08:56:54;;;;;;;18.67;12.23;;;;;;;8.41;27.06;101563.36;2105388;84;21340;-84
2022/03/20 08:59:55;;;;;;;15.87;11.67;;;;;;;8.42;27.07;101560.36;2112281;84;20979;-83
2022/03/20 09:02:55;;;;;;;16.90;10.90;;;;;;;8.57;27.05;101558.72;2120936;82;20950;-82
2022/03/20 09:05:56;;;;;;;15.77;10.77;;;;;;;8.65;27.06;101561.40;2120573;84;20986;-85
2022/03/20 09:08:56;;;;;;;22.03;11.67;;;;;;;8.78;26.69;101564.00;2112472;83;21025;-83
2022/03/20 09:11:57;;;;;;;15.40;11.37;;;;;;;8.82;25.98;101558.58;2113897;84;20954;-82
2022/03/20 09:14:57;;;;;;;13.80;10.77;;;;;;;8.80;26.39;101561.48;2113799;84;21389;-82
2022/03/20 09:21:17;;;;;;;25.20;9.83;;;;;;;9.03;26.28;101560.30;2121301;84;21077;-82
2022/03/20 09:24:18;;;;;;;15.53;9.87;;;;;;;9.19;25.29;101570.84;2114045;83;21323;-82
2022/03/20 09:27:18;;;;;;;22.93;10.27;;;;;;;9.23;25.25;101561.09;2110655;83;21389;-81
2022/03/20 09:30:19;;;;;;;16.43;11.50;;;;;;;9.23;25.13;101561.09;2120620;84;20958;-83
2022/03/20 09:33:21;;;;;;;13.07;10.70;;;;;;;9.20;24.60;101569.63;2119809;84;20955;-80
2022/03/20 09:36:22;;;;;;;16.10;10.40;;;;;;;9.08;24.91;101570.59;2112650;84;21063;-80
2022/03/20 09:39:22;;;;;;;14.73;10.57;;;;;;;9.19;24.93;101573.04;2118725;84;21046;-83
2022/03/20 09:42:23;;;;;;;14.40;10.17;;;;;;;9.30;24.75;101573.69;2113329;83;20931;-83
2022/03/20 09:45:23;;;;;;;18.83;10.20;;;;;;;9.41;25.10;101563.50;2118834;84;21354;-82
2022/03/20 09:48:24;;;;;;;27.37;10.87;;;;;;;9.60;24.31;101567.23;2114605;83;21330;-82
2022/03/20 09:51:24;;;;;;;32.50;9.53;;;;;;;9.56;24.71;101562.23;2112668;83;20931;-81
2022/03/20 09:54:24;;;;;;;12.00;9.17;;;;;;;9.51;23.21;101563.23;2112388;84;21018;-84
2022/03/20 09:57:25;;;;;;;14.40;9.07;;;;;;;9.51;23.24;101576.27;2118460;84;20997;-86
2022/03/20 10:00:25;;;;;;;23.23;9.90;;;;;;;9.46;23.31;101565.97;2118899;84;21053;-86
2022/03/20 10:03:26;;;;;;;48.73;10.80;;;;;;;9.48;23.61;101568.67;2117659;83;21036;-82
2022/03/20 10:06:26;;;;;;;13.30;9.70;;;;;;;9.52;22.69;101571.55;2120902;84;21109;-84
2022/03/20 10:09:27;;;;;;;16.77;9.33;;;;;;;9.58;23.93;101566.73;2117527;84;21062;-84
2022/03/20 10:12:27;;;;;;;16.47;9.50;;;;;;;9.73;23.34;101564.12;2119025;84;21010;-84
2022/03/20 10:15:28;;;;;;;14.40;9.57;;;;;;;9.74;23.10;101559.80;2112028;83;20962;-83
2022/03/20 10:18:28;;;;;;;16.43;10.20;;;;;;;9.63;23.52;101560.48;2119573;83;20990;-84
2022/03/20 10:21:34;;;;;;;22.03;10.30;;;;;;;9.64;23.51;101562.69;2113859;84;21118;-85
2022/03/20 10:24:35;;;;;;;16.23;9.27;;;;;;;9.75;23.64;101553.78;2114540;83;21398;-85
2022/03/20 10:27:35;;;;;;;13.10;8.97;;;;;;;9.87;23.85;101553.18;2122065;84;20974;-84
2022/03/20 10:30:36;;;;;;;14.83;9.23;;;;;;;9.87;23.30;101546.66;2121509;84;20982;-82
2022/03/20 10:33:40;;;;;;;14.50;9.17;;;;;;;9.88;23.14;101552.37;2116207;84;21002;-84
2022/03/20 10:36:39;;;;;;;24.13;9.17;;;;;;;9.97;23.33;101546.38;2125775;84;21055;-82
2022/03/20 10:39:42;;;;;;;14.17;8.60;;;;;;;10.11;22.87;101540.22;2112535;83;21071;-82
2022/03/20 10:42:42;;;;;;;13.00;8.70;;;;;;;10.23;22.93;101545.67;2119775;84;21031;-82
2022/03/20 10:45:42;;;;;;;11.23;8.53;;;;;;;10.16;22.69;101539.17;2114623;84;21034;-82
2022/03/20 10:48:43;;;;;;;11.07;7.77;;;;;;;10.22;22.77;101539.55;2111214;83;21030;-81
2022/03/20 10:51:43;;;;;;;14.03;8.20;;;;;;;10.22;21.54;101534.34;2120400;84;20943;-81
2022/03/20 10:54:44;;;;;;;14.63;8.73;;;;;;;10.21;21.48;101523.41;2121597;84;20940;-81
2022/03/20 10:57:44;;;;;;;13.50;8.30;;;;;;;10.19;21.60;101523.28;2118778;84;21373;-80
2022/03/20 11:00:46;;;;;;;15.90;7.83;;;;;;;10.30;21.50;101525.22;2117820;84;21014;-81
2022/03/20 11:03:46;;;;;;;9.53;7.50;;;;;;;10.34;20.86;101516.73;2118408;84;21067;-80
2022/03/20 11:06:47;;;;;;;10.07;7.90;;;;;;;10.41;21.10;101508.46;2110507;84;21007;-81
2022/03/20 11:09:47;;;;;;;10.77;8.40;;;;;;;10.42;21.16;101502.83;2098393;83;21058;-81
2022/03/20 11:12:48;;;;;;;10.70;7.73;;;;;;;10.39;20.74;101501.33;2092787;84;20959;-80
2022/03/20 11:15:49;;;;;;;11.80;8.57;;;;;;;10.39;20.88;101497.41;2120543;84;20963;-81
2022/03/20 11:18:51;;;;;;;13.97;8.63;;;;;;;10.40;21.53;101491.00;2118826;84;20951;-80
2022/03/20 11:21:51;;;;;;;16.40;9.23;;;;;;;10.52;21.74;101488.16;2112433;84;21023;-81
2022/03/20 11:24:52;;;;;;;13.53;8.67;;;;;;;10.58;21.58;101483.26;2119881;83;20994;-81
2022/03/20 11:27:53;;;;;;;12.63;8.60;;;;;;;10.57;21.40;101490.61;2119603;84;20986;-82
2022/03/20 11:30:53;;;;;;;10.47;7.80;;;;;;;10.62;21.67;101483.02;2112114;83;21450;-81
2022/03/20 11:33:56;;;;;;;13.47;9.17;;;;;;;10.62;21.79;101486.94;2110918;84;20943;-80
2022/03/20 11:36:57;;;;;;;13.03;9.37;;;;;;;10.70;21.20;101480.41;2119848;84;20978;-81
2022/03/20 11:39:57;;;;;;;9.80;8.47;;;;;;;10.71;21.96;101476.56;2119036;84;21046;-81
2022/03/20 11:42:58;;;;;;;11.33;8.03;;;;;;;10.78;22.12;101470.84;2118703;84;20947;-81
2022/03/20 11:45:58;;;;;;;10.63;8.63;;;;;;;10.89;21.69;101469.20;2111274;84;20959;-81
2022/03/20 11:48:59;;;;;;;10.37;8.10;;;;;;;10.82;20.52;101465.38;2090121;84;21372;-81
2022/03/20 11:51:59;;;;;;;14.93;8.83;;;;;;;10.77;21.44;101448.15;2089925;85;21006;-83
2022/03/20 11:55:00;;;;;;;9.57;7.93;;;;;;;10.82;20.98;101463.66;2111938;84;21007;-83
2022/03/20 11:58:05;;;;;;;10.03;7.20;;;;;;;10.70;20.10;101453.87;2092440;84;20999;-83
2022/03/20 12:01:06;;;;;;;;;;;;;;;10.71;20.78;101445.22;2103078;84;20971;-82
2022/03/20 12:04:07;;;;;;;9.93;7.27;;;;;;;10.67;20.80;101443.66;2092876;84;20102;-81
2022/03/20 12:07:07;;;;;;;9.67;7.90;;;;;;;10.72;19.95;101432.64;2104058;83;21368;-81
2022/03/20 12:10:09;;;;;;;10.43;6.93;;;;;;;10.85;20.50;101437.69;2118784;84;21054;-82
2022/03/20 12:13:10;;;;;;;10.23;6.83;;;;;;;10.93;20.18;101433.27;2118003;84;21022;-82
2022/03/20 12:16:10;;;;;;;9.10;6.90;;;;;;;10.92;19.96;101430.16;2117660;84;21021;-83
2022/03/20 12:19:14;;;;;;;7.00;5.73;;;;;;;11.02;19.90;101421.97;2110338;84;21006;-81
2022/03/20 12:22:18;;;;;;;8.07;6.20;;;;;;;11.08;18.85;101421.88;2118895;84;21421;-83
2022/03/20 12:25:18;;;;;;;7.50;5.87;;;;;;;11.13;19.00;101420.80;2119294;83;21058;-84
2022/03/20 12:28:19;;;;;;;8.93;6.60;;;;;;;11.13;18.13;101413.85;2125099;84;21014;-83
2022/03/20 12:31:19;;;;;;;9.77;6.37;;;;;;;11.17;17.83;101417.52;2110600;84;21001;-82
2022/03/20 12:34:20;;;;;;;8.77;6.93;;;;;;;11.13;17.78;101413.85;2122314;83;20959;-82
2022/03/20 12:37:20;;;;;;;8.07;5.27;;;;;;;11.00;17.57;101404.91;2113239;84;20967;-82
2022/03/20 12:40:21;;;;;;;7.53;5.93;;;;;;;11.07;18.14;101404.80;2113252;83;21011;-82
2022/03/20 12:43:21;;;;;;;11.10;6.40;;;;;;;11.10;18.30;101395.81;2120949;84;21023;-83
2022/03/20 12:46:22;;;;;;;8.57;6.80;;;;;;;11.11;17.93;101398.91;2115732;84;20935;-82
2022/03/20 12:49:23;;;;;;;5.97;5.33;;;;;;;11.20;17.88;101399.37;2121561;84;20979;-83
2022/03/20 12:52:24;;;;;;;9.97;5.00;;;;;;;11.27;17.36;101400.20;2118889;84;20974;-82
2022/03/20 12:55:24;;;;;;;8.43;5.47;;;;;;;11.25;16.25;101391.76;2119368;84;21015;-81
2022/03/20 12:58:25;;;;;;;8.50;6.60;;;;;;;11.25;17.18;101381.30;2113151;83;21019;-82
2022/03/20 13:01:26;;;;;;;7.87;6.60;;;;;;;11.33;17.59;101382.20;2113517;83;20970;-81
2022/03/20 13:04:27;;;;;;;8.67;6.00;;;;;;;11.39;17.96;101383.80;2112178;84;21457;-81
2022/03/20 13:07:27;;;;;;;7.87;6.85;;;;;;;11.45;17.63;101378.87;2123078;83;21432;-83
2022/03/20 13:10:28;;;;;;;8.97;7.03;;;;;;;11.45;17.81;101369.71;2111438;83;21072;-83
2022/03/20 13:13:29;;;;;;;10.88;7.67;;;;;;;11.46;18.35;101370.20;2120049;84;21025;-81
2022/03/20 13:16:29;;;;;;;8.88;7.53;;;;;;;11.47;18.63;101369.78;2117968;84;21231;-81
2022/03/20 13:19:30;;;;;;;10.88;7.85;;;;;;;11.54;18.42;101374.48;2111879;83;20955;-82
2022/03/20 13:22:30;;;;;;;9.27;7.23;;;;;;;11.52;18.59;101366.08;2117505;84;20991;-84
2022/03/20 13:25:31;;;;;;;10.95;7.62;;;;;;;11.53;18.48;101371.80;2115234;84;20991;-83
2022/03/20 13:28:31;;;;;;;9.50;7.40;;;;;;;11.53;18.44;101366.56;2120861;84;21402;-84
2022/03/20 13:31:32;;;;;;;10.60;7.70;;;;;;;11.53;18.42;101370.08;2118573;84;21054;-83
2022/03/20 13:34:33;;;;;;;10.80;7.67;;;;;;;11.49;18.68;101365.11;2116788;83;20982;-84
2022/03/20 13:37:33;;;;;;;12.03;7.80;;;;;;;11.37;17.99;101368.45;2121932;84;20942;-83
2022/03/20 13:40:34;;;;;;;10.67;7.73;;;;;;;11.25;18.70;101359.97;2112629;83;21026;-84
2022/03/20 13:43:34;;;;;;;7.40;6.20;;;;;;;11.22;19.16;101355.90;2113819;84;20994;-83
2022/03/20 13:46:35;;;;;;;9.23;6.73;;;;;;;11.30;17.82;101359.82;2112521;84;20982;-82
2022/03/20 13:49:36;;;;;;;8.90;6.47;;;;;;;11.28;18.26;101353.62;2119911;84;21016;-83
2022/03/20 13:52:36;;;;;;;6.90;6.10;;;;;;;11.31;18.28;101352.87;2122360;84;20951;-82
2022/03/20 13:55:40;;;;;;;7.87;6.60;;;;;;;11.31;17.81;101358.09;2112876;84;20986;-82
2022/03/20 13:58:40;;;;;;;7.63;6.60;;;;;;;11.24;17.11;101355.97;2112958;84;21027;-83
2022/03/20 14:01:41;;;;;;;8.53;6.60;;;;;;;11.18;17.87;101351.34;2111527;83;20979;-83
2022/03/20 14:04:41;;;;;;;10.73;7.27;;;;;;;11.16;18.13;101354.30;2113335;83;20960;-82
2022/03/20 14:07:43;;;;;;;10.77;7.10;;;;;;;11.20;18.29;101357.95;2122393;84;20919;-83
2022/03/20 14:10:45;;;;;;;7.80;6.60;;;;;;;11.20;18.29;101351.42;2101055;84;21019;-82
2022/03/20 14:13:45;;;;;;;12.50;6.60;;;;;;;11.23;18.11;101343.31;2112262;84;21011;-84
2022/03/20 14:16:46;;;;;;;10.70;6.80;;;;;;;11.21;17.91;101343.65;2119847;84;20966;-82
2022/03/20 14:19:46;;;;;;;9.37;6.87;;;;;;;11.16;18.12;101345.14;2121131;83;20967;-83
2022/03/20 14:22:47;;;;;;;8.43;6.13;;;;;;;11.13;18.18;101339.77;2108035;84;21029;-82
2022/03/20 14:25:48;;;;;;;11.37;7.60;;;;;;;11.11;18.55;101339.69;2112880;84;20986;-81
2022/03/20 14:28:48;;;;;;;9.97;7.30;;;;;;;11.18;18.92;101335.66;2120191;84;21429;-83